Time;durP1;ratioP1;P1;durP2;ratioP2;P2;SDS_P1;SDS_P2;PMS_P1;PMS_P2;Temp;Humidity;BMP_temperature;BMP_pressure;BME280_temperature;BME280_humidity;BME280_pressure;Samples;Min_cycle;Max_cycle;Signal;HPM_P1;HPM_P2
2022/07/16 00:03:25;;;;;;;9.48;6.40;;;14.30;97.40;;;;;;4972761;28;20079;-61
2022/07/16 00:05:51;;;;;;;13.75;6.25;;;14.10;98.40;;;;;;4969579;28;20047;-61
2022/07/16 00:08:17;;;;;;;9.68;6.80;;;14.10;98.60;;;;;;4970691;28;20085;-61
2022/07/16 00:10:43;;;;;;;9.00;5.43;;;14.00;98.70;;;;;;4957707;28;20147;-61
2022/07/16 00:13:08;;;;;;;14.73;6.43;;;14.10;98.70;;;;;;4962947;28;20030;-61
2022/07/16 00:15:34;;;;;;;10.70;6.18;;;14.00;98.80;;;;;;4973075;28;20041;-61
2022/07/16 00:20:44;;;;;;;9.88;6.35;;;13.90;99.20;;;;;;4950864;28;20081;-61
2022/07/16 00:23:09;;;;;;;10.35;6.30;;;13.80;99.70;;;;;;4963853;28;20066;-61
2022/07/16 00:25:35;;;;;;;11.73;6.57;;;13.80;99.90;;;;;;4972923;28;20501;-61
2022/07/16 00:28:01;;;;;;;9.80;5.72;;;13.80;99.80;;;;;;4964352;28;20491;-61
2022/07/16 00:30:28;;;;;;;12.70;6.47;;;13.70;99.90;;;;;;4971324;28;20034;-61
2022/07/16 00:32:53;;;;;;;13.32;6.93;;;13.50;99.90;;;;;;4968539;28;20085;-61
2022/07/16 00:35:19;;;;;;;15.40;6.90;;;13.30;99.90;;;;;;4966726;28;20109;-60
2022/07/16 00:37:45;;;;;;;15.80;7.15;;;13.30;99.90;;;;;;4970822;28;20042;-61
2022/07/16 00:40:11;;;;;;;11.55;6.57;;;13.20;99.90;;;;;;4965027;28;20486;-61
2022/07/16 00:42:36;;;;;;;9.95;6.57;;;13.20;99.90;;;;;;4973618;28;20057;-61
2022/07/16 00:45:02;;;;;;;14.48;5.93;;;13.20;99.90;;;;;;4974398;28;20392;-61
2022/07/16 00:47:28;;;;;;;8.75;5.97;;;13.20;99.90;;;;;;4966232;28;20358;-61
2022/07/16 00:49:54;;;;;;;10.73;6.32;;;13.30;99.90;;;;;;4969409;28;20038;-61
2022/07/16 00:52:19;;;;;;;9.73;6.55;;;13.30;99.90;;;;;;4971521;28;20053;-61
2022/07/16 00:54:45;;;;;;;10.45;6.57;;;13.40;99.90;;;;;;4963810;28;20034;-62
2022/07/16 00:57:11;;;;;;;11.30;6.32;;;13.40;99.90;;;;;;4963911;28;20019;-61
2022/07/16 00:59:36;;;;;;;9.90;6.18;;;13.40;99.90;;;;;;4970615;28;20026;-61
2022/07/16 01:02:02;;;;;;;9.60;6.22;;;13.40;99.90;;;;;;4968694;28;20246;-61
2022/07/16 01:04:28;;;;;;;10.43;6.38;;;13.40;99.90;;;;;;4971271;28;20477;-61
2022/07/16 01:06:54;;;;;;;11.48;6.30;;;13.30;99.90;;;;;;4969889;28;20753;-60
2022/07/16 01:09:21;;;;;;;11.93;6.53;;;13.00;99.90;;;;;;4969186;28;20536;-61
2022/07/16 01:11:48;;;;;;;9.02;6.07;;;12.90;99.90;;;;;;4964125;28;20043;-61
2022/07/16 01:14:15;;;;;;;9.70;6.28;;;12.90;99.90;;;;;;4950290;29;20386;-61
2022/07/16 01:16:41;;;;;;;9.65;6.15;;;12.90;99.90;;;;;;4959134;28;20469;-61
2022/07/16 01:19:08;;;;;;;10.15;6.45;;;12.80;99.90;;;;;;4967657;28;20027;-61
2022/07/16 01:21:34;;;;;;;13.48;7.07;;;12.80;99.90;;;;;;4960005;28;20047;-61
2022/07/16 01:24:00;;;;;;;13.95;6.75;;;12.70;99.90;;;;;;4962148;28;20629;-61
2022/07/16 01:26:26;;;;;;;11.32;6.30;;;12.60;99.90;;;;;;4970469;28;20488;-61
2022/07/16 01:28:51;;;;;;;14.50;6.63;;;12.60;99.90;;;;;;4958378;28;20027;-61
2022/07/16 01:31:17;;;;;;;12.27;6.82;;;12.60;99.90;;;;;;4963916;28;20501;-61
2022/07/16 01:33:43;;;;;;;10.43;6.57;;;12.70;99.90;;;;;;4968823;28;20027;-61
2022/07/16 01:36:13;;;;;;;14.75;6.53;;;12.50;99.90;;;;;;4974416;28;20536;-61
2022/07/16 01:38:41;;;;;;;9.18;6.38;;;12.50;99.90;;;;;;4976250;28;20035;-61
2022/07/16 01:41:07;;;;;;;14.32;6.63;;;12.40;99.90;;;;;;4972778;28;20042;-61
2022/07/16 01:43:34;;;;;;;12.30;7.00;;;12.20;99.90;;;;;;4976207;28;20027;-61
2022/07/16 01:45:59;;;;;;;11.35;6.97;;;12.00;99.90;;;;;;4971505;28;20054;-61
2022/07/16 01:48:26;;;;;;;11.50;6.47;;;12.00;99.90;;;;;;4974070;28;20058;-61
2022/07/16 01:50:53;;;;;;;11.30;6.63;;;12.10;99.90;;;;;;4973480;28;20035;-61
2022/07/16 01:53:19;;;;;;;11.25;6.85;;;12.10;99.90;;;;;;4973861;28;20493;-61
2022/07/16 01:55:45;;;;;;;12.00;6.78;;;12.10;99.90;;;;;;4972573;28;20046;-61
2022/07/16 01:58:13;;;;;;;14.60;6.72;;;12.20;99.90;;;;;;4972025;28;20031;-61
2022/07/16 02:00:42;;;;;;;12.48;6.70;;;12.20;99.90;;;;;;4974355;28;20149;-60
2022/07/16 02:03:08;;;;;;;11.73;7.40;;;12.20;99.90;;;;;;4975527;28;20042;-61
2022/07/16 02:05:34;;;;;;;11.57;6.93;;;12.20;99.90;;;;;;4973842;28;20385;-61
2022/07/16 02:08:01;;;;;;;12.30;7.20;;;12.30;99.90;;;;;;4975236;28;20085;-61
2022/07/16 02:10:27;;;;;;;9.68;6.63;;;12.30;99.90;;;;;;4973781;28;20504;-61
2022/07/16 02:12:52;;;;;;;12.80;7.18;;;12.30;99.90;;;;;;4973701;28;20035;-61
2022/07/16 02:15:18;;;;;;;12.68;7.25;;;12.30;99.90;;;;;;4975048;28;20614;-61
2022/07/16 02:17:44;;;;;;;12.73;7.13;;;12.30;99.90;;;;;;4973828;28;20039;-61
2022/07/16 02:20:11;;;;;;;11.55;7.28;;;12.30;99.90;;;;;;4973343;28;20066;-60
2022/07/16 02:22:37;;;;;;;11.60;7.55;;;12.20;99.90;;;;;;4966791;28;20102;-61
2022/07/16 02:25:05;;;;;;;11.77;7.15;;;12.00;99.90;;;;;;4972902;28;20055;-61
2022/07/16 02:27:31;;;;;;;11.73;6.90;;;11.70;99.90;;;;;;4965300;28;20031;-61
2022/07/16 02:29:56;;;;;;;11.68;7.18;;;11.70;99.90;;;;;;4953546;29;20030;-61
2022/07/16 02:32:22;;;;;;;12.43;7.43;;;11.80;99.90;;;;;;4969507;28;20035;-60
2022/07/16 02:34:50;;;;;;;12.88;7.38;;;11.80;99.90;;;;;;4959091;28;20036;-61
2022/07/16 02:37:16;;;;;;;15.27;7.38;;;11.90;99.90;;;;;;4954306;28;20522;-61
2022/07/16 02:39:42;;;;;;;14.13;7.28;;;11.70;99.90;;;;;;4973209;28;20193;-61
2022/07/16 02:42:07;;;;;;;13.02;7.35;;;11.60;99.90;;;;;;4971905;28;20050;-60
2022/07/16 02:44:33;;;;;;;12.82;7.15;;;11.50;99.90;;;;;;4968870;28;20024;-61
2022/07/16 02:46:59;;;;;;;11.63;7.35;;;11.50;99.90;;;;;;4955939;28;20043;-61
2022/07/16 02:49:25;;;;;;;11.05;7.25;;;11.60;99.90;;;;;;4974011;28;20039;-60
2022/07/16 02:51:50;;;;;;;15.60;7.50;;;11.50;99.90;;;;;;4971623;28;20039;-61
2022/07/16 02:54:16;;;;;;;10.80;7.30;;;11.50;99.90;;;;;;4971912;28;20035;-60
2022/07/16 02:56:42;;;;;;;12.55;7.30;;;11.50;99.90;;;;;;4972837;28;20058;-61
2022/07/16 02:59:07;;;;;;;11.50;6.78;;;11.50;99.90;;;;;;4962941;28;20024;-61
2022/07/16 03:01:33;;;;;;;12.70;6.93;;;11.40;99.90;;;;;;4964655;28;20097;-61
2022/07/16 03:03:59;;;;;;;11.20;7.13;;;11.40;99.90;;;;;;4971445;28;20039;-61
2022/07/16 03:06:24;;;;;;;13.23;7.35;;;11.40;99.90;;;;;;4971828;28;20031;-61
2022/07/16 03:08:50;;;;;;;13.50;6.95;;;11.30;99.90;;;;;;4971769;28;20034;-60
2022/07/16 03:11:16;;;;;;;13.30;7.40;;;11.30;99.90;;;;;;4972824;28;20093;-60
2022/07/16 03:13:42;;;;;;;11.73;7.10;;;11.40;99.90;;;;;;4966285;28;20086;-60
2022/07/16 03:16:08;;;;;;;12.30;7.13;;;11.50;99.90;;;;;;4962465;28;20027;-61
2022/07/16 03:18:34;;;;;;;11.35;7.22;;;11.50;99.90;;;;;;4972341;28;20034;-60
2022/07/16 03:20:59;;;;;;;12.52;6.93;;;11.40;99.90;;;;;;4971919;28;20041;-60
2022/07/16 03:23:25;;;;;;;12.80;7.60;;;11.30;99.90;;;;;;4971564;28;20089;-60
2022/07/16 03:25:51;;;;;;;12.65;7.45;;;11.20;99.90;;;;;;4971950;28;20094;-60
2022/07/16 03:28:17;;;;;;;14.23;8.13;;;11.20;99.90;;;;;;4974643;28;20109;-61
2022/07/16 03:30:42;;;;;;;13.65;7.40;;;11.30;99.90;;;;;;4971651;28;20069;-61
2022/07/16 03:33:08;;;;;;;13.70;7.53;;;11.40;99.90;;;;;;4954423;28;20476;-61
2022/07/16 03:35:34;;;;;;;14.77;7.47;;;11.50;99.90;;;;;;4953108;29;20046;-61
2022/07/16 03:40:44;;;;;;;12.30;6.45;;;11.30;99.90;;;;;;4956773;28;20153;-60
2022/07/16 03:43:09;;;;;;;13.02;7.43;;;11.30;99.90;;;;;;4972320;28;20675;-60
2022/07/16 03:45:35;;;;;;;13.02;7.45;;;11.40;99.90;;;;;;4957157;28;20039;-60
2022/07/16 03:48:01;;;;;;;12.95;7.47;;;11.40;99.90;;;;;;4975228;28;20054;-61
2022/07/16 03:50:27;;;;;;;11.75;6.85;;;11.20;99.90;;;;;;4969006;28;20460;-61
2022/07/16 03:52:52;;;;;;;13.75;7.70;;;11.10;99.90;;;;;;4970725;28;20400;-61
2022/07/16 03:55:18;;;;;;;13.10;7.80;;;11.10;99.90;;;;;;4967690;28;20027;-60
2022/07/16 03:57:44;;;;;;;14.70;7.70;;;11.20;99.90;;;;;;4973588;28;20057;-60
2022/07/16 04:00:11;;;;;;;11.52;7.20;;;11.20;99.90;;;;;;4966662;28;20651;-60
2022/07/16 04:02:37;;;;;;;13.40;7.32;;;11.30;99.90;;;;;;4967339;28;20035;-61
2022/07/16 04:05:04;;;;;;;14.70;7.72;;;11.20;99.90;;;;;;4968476;28;20381;-61
2022/07/16 04:07:30;;;;;;;13.35;7.25;;;11.20;99.90;;;;;;4953753;28;20047;-61
2022/07/16 04:09:56;;;;;;;15.85;7.65;;;11.10;99.90;;;;;;4966819;28;20121;-61
2022/07/16 04:12:23;;;;;;;11.50;7.60;;;11.20;99.90;;;;;;4961723;28;20110;-61
2022/07/16 04:14:51;;;;;;;17.25;10.10;;;11.20;99.90;;;;;;4957772;28;20026;-60
2022/07/16 04:17:17;;;;;;;16.05;9.27;;;11.10;99.90;;;;;;4965035;28;20027;-61
2022/07/16 04:19:43;;;;;;;14.70;8.55;;;11.20;99.90;;;;;;4952702;28;20034;-61
2022/07/16 04:22:09;;;;;;;14.15;7.97;;;11.30;99.90;;;;;;4970665;28;20042;-61
2022/07/16 04:24:34;;;;;;;13.32;7.43;;;11.40;99.90;;;;;;4961173;28;20082;-61
2022/07/16 04:27:00;;;;;;;11.95;7.13;;;11.60;99.90;;;;;;4960687;28;20059;-61
2022/07/16 04:29:26;;;;;;;14.60;8.65;;;11.60;99.90;;;;;;4961849;28;20047;-61
2022/07/16 04:31:51;;;;;;;13.07;8.30;;;11.70;99.90;;;;;;4966424;28;20042;-60
2022/07/16 04:34:17;;;;;;;15.30;8.35;;;11.90;99.90;;;;;;4969020;28;20027;-60
2022/07/16 04:36:44;;;;;;;11.18;7.22;;;12.10;99.90;;;;;;4964490;28;20473;-60
2022/07/16 04:39:10;;;;;;;13.18;7.90;;;12.20;99.90;;;;;;4970633;28;20068;-60
2022/07/16 04:41:36;;;;;;;13.43;7.20;;;12.40;99.90;;;;;;4964564;28;20094;-61
2022/07/16 04:44:02;;;;;;;14.30;7.93;;;12.50;99.90;;;;;;4961109;28;20042;-60
2022/07/16 04:46:27;;;;;;;13.65;8.13;;;12.40;99.90;;;;;;4969247;28;20023;-60
2022/07/16 04:48:53;;;;;;;11.88;7.20;;;12.50;99.90;;;;;;4969119;28;20160;-60
2022/07/16 04:51:19;;;;;;;14.27;7.85;;;12.70;99.90;;;;;;4967593;28;20030;-61
2022/07/16 04:53:45;;;;;;;11.52;7.75;;;12.80;99.90;;;;;;4970858;28;20030;-60
2022/07/16 04:56:10;;;;;;;14.18;7.53;;;12.90;99.90;;;;;;4969818;28;20075;-61
2022/07/16 04:58:36;;;;;;;12.13;7.35;;;13.10;99.90;;;;;;4958842;28;20035;-60
2022/07/16 05:01:01;;;;;;;13.07;7.78;;;13.20;99.90;;;;;;4958283;28;20035;-60
2022/07/16 05:03:27;;;;;;;12.52;7.50;;;13.40;99.90;;;;;;4971090;28;20031;-60
2022/07/16 05:05:53;;;;;;;15.02;7.60;;;13.50;99.90;;;;;;4970509;28;20449;-60
2022/07/16 05:08:19;;;;;;;12.52;7.57;;;13.60;99.90;;;;;;4969309;28;20031;-60
2022/07/16 05:10:45;;;;;;;13.00;7.68;;;13.50;99.90;;;;;;4969644;28;20067;-60
2022/07/16 05:13:10;;;;;;;11.70;7.43;;;13.60;99.90;;;;;;4969956;28;20023;-60
2022/07/16 05:15:36;;;;;;;11.25;7.50;;;13.70;99.90;;;;;;4956122;28;20122;-60
2022/07/16 05:18:03;;;;;;;12.52;7.53;;;13.80;99.90;;;;;;4951080;29;20375;-60
2022/07/16 05:20:29;;;;;;;11.10;7.15;;;13.80;99.90;;;;;;4964718;28;20452;-60
2022/07/16 05:22:55;;;;;;;11.55;7.25;;;13.90;99.90;;;;;;4951437;28;20280;-60
2022/07/16 05:25:21;;;;;;;11.77;7.65;;;14.10;99.90;;;;;;4968651;28;20063;-60
2022/07/16 05:27:47;;;;;;;12.57;7.32;;;14.30;99.90;;;;;;4969218;28;20035;-60
2022/07/16 05:30:13;;;;;;;15.18;7.03;;;14.30;99.90;;;;;;4958495;28;20034;-60
2022/07/16 05:32:40;;;;;;;12.27;7.65;;;14.40;99.90;;;;;;4960375;28;20480;-60
2022/07/16 05:35:07;;;;;;;13.07;7.70;;;14.60;99.90;;;;;;4965597;28;20150;-60
2022/07/16 05:37:32;;;;;;;13.85;7.65;;;14.80;99.90;;;;;;4954044;28;20054;-60
2022/07/16 05:39:58;;;;;;;15.63;8.27;;;14.80;99.90;;;;;;4960092;28;20035;-61
2022/07/16 05:42:24;;;;;;;12.70;7.53;;;14.50;99.90;;;;;;4954715;28;20035;-60
2022/07/16 05:44:49;;;;;;;12.15;7.43;;;14.40;99.90;;;;;;4951262;29;20039;-60
2022/07/16 05:47:15;;;;;;;12.63;7.80;;;14.40;99.90;;;;;;4955330;28;20415;-61
2022/07/16 05:49:41;;;;;;;13.10;7.68;;;14.30;99.90;;;;;;4970490;28;20030;-60
2022/07/16 05:52:06;;;;;;;13.32;8.18;;;14.30;99.90;;;;;;4956251;28;20733;-61
2022/07/16 05:54:32;;;;;;;14.02;8.25;;;14.30;99.90;;;;;;4951144;29;20031;-60
2022/07/16 05:56:57;;;;;;;16.27;8.30;;;14.30;99.90;;;;;;4966195;28;20046;-60
2022/07/16 05:59:23;;;;;;;12.45;8.32;;;14.50;99.90;;;;;;4968393;28;20477;-60
2022/07/16 06:01:49;;;;;;;13.98;8.05;;;14.80;99.90;;;;;;4971374;28;20469;-60
2022/07/16 06:04:14;;;;;;;20.63;8.38;;;15.20;99.90;;;;;;4969716;28;20094;-61
2022/07/16 06:06:40;;;;;;;12.38;8.18;;;15.40;99.90;;;;;;4970450;28;20031;-60
2022/07/16 06:09:06;;;;;;;15.65;8.75;;;15.60;99.90;;;;;;4969329;28;20030;-61
2022/07/16 06:11:31;;;;;;;16.63;8.95;;;15.70;99.90;;;;;;4970465;28;20106;-60
2022/07/16 06:13:57;;;;;;;18.75;8.55;;;15.90;99.90;;;;;;4970289;28;20027;-61
2022/07/16 06:16:23;;;;;;;19.33;7.95;;;16.10;99.90;;;;;;4967919;28;20027;-60
2022/07/16 06:18:49;;;;;;;15.07;8.80;;;16.30;99.90;;;;;;4970419;28;20708;-60
2022/07/16 06:21:15;;;;;;;13.25;8.23;;;16.50;99.90;;;;;;4972343;28;20047;-60
2022/07/16 06:23:40;;;;;;;14.82;8.35;;;16.60;99.90;;;;;;4973750;28;20023;-61
2022/07/16 06:26:06;;;;;;;13.07;7.38;;;16.80;99.90;;;;;;4972910;28;20038;-61
2022/07/16 06:28:32;;;;;;;13.63;6.88;;;16.90;99.90;;;;;;4973966;28;20023;-61
2022/07/16 06:30:58;;;;;;;14.20;7.93;;;17.10;99.90;;;;;;4973162;28;20088;-60
2022/07/16 06:33:23;;;;;;;16.08;8.38;;;17.30;99.90;;;;;;4972502;28;20031;-61
2022/07/16 06:35:49;;;;;;;13.55;7.22;;;17.40;99.90;;;;;;4972258;28;20460;-60
2022/07/16 06:38:14;;;;;;;13.23;7.07;;;17.60;99.90;;;;;;4972759;28;20432;-61
2022/07/16 06:40:44;;;;;;;13.05;6.32;;;17.70;99.90;;;;;;4972726;28;20035;-61
2022/07/16 06:43:10;;;;;;;10.68;6.75;;;17.80;99.90;;;;;;4972216;28;20119;-61
2022/07/16 06:45:36;;;;;;;15.43;7.50;;;17.90;99.90;;;;;;4964835;28;20102;-61
2022/07/16 06:48:02;;;;;;;16.52;7.55;;;18.00;99.90;;;;;;4970880;28;20170;-61
2022/07/16 06:50:27;;;;;;;12.82;6.57;;;17.90;99.90;;;;;;4972790;28;20023;-61
2022/07/16 06:52:53;;;;;;;13.32;6.97;;;18.10;99.90;;;;;;4973241;28;20046;-60
2022/07/16 06:55:19;;;;;;;9.32;6.28;;;18.10;99.90;;;;;;4972491;28;20023;-61
2022/07/16 06:57:44;;;;;;;14.23;7.18;;;18.20;99.90;;;;;;4973136;28;20424;-60
2022/07/16 07:00:11;;;;;;;10.07;6.47;;;18.10;99.90;;;;;;4970851;28;20030;-61
2022/07/16 07:02:37;;;;;;;11.50;6.50;;;18.20;99.90;;;;;;4972592;28;20446;-60
2022/07/16 07:05:03;;;;;;;9.18;6.13;;;18.30;99.90;;;;;;4972376;28;20105;-61
2022/07/16 07:07:29;;;;;;;12.60;6.55;;;18.40;99.90;;;;;;4972366;28;20061;-60
2022/07/16 07:09:54;;;;;;;10.23;6.07;;;18.50;99.90;;;;;;4972224;28;20497;-61
2022/07/16 07:12:20;;;;;;;11.88;5.72;;;18.50;99.90;;;;;;4972194;28;20593;-60
2022/07/16 07:14:46;;;;;;;10.43;5.57;;;18.50;99.60;;;;;;4972968;28;20023;-61
2022/07/16 07:17:11;;;;;;;13.48;5.78;;;18.40;99.70;;;;;;4972045;28;20409;-61
2022/07/16 07:19:37;;;;;;;11.18;6.00;;;18.50;99.90;;;;;;4972825;28;20038;-60
2022/07/16 07:22:02;;;;;;;15.00;5.60;;;18.70;99.90;;;;;;4970672;28;20039;-61
2022/07/16 07:24:28;;;;;;;11.70;5.63;;;18.90;99.80;;;;;;4971093;28;20724;-61
2022/07/16 07:26:54;;;;;;;20.25;5.40;;;19.00;98.70;;;;;;4972565;28;20658;-61
2022/07/16 07:29:20;;;;;;;11.15;5.72;;;19.10;98.30;;;;;;4971828;28;20077;-61
2022/07/16 07:31:45;;;;;;;9.63;5.40;;;19.20;97.80;;;;;;4972260;28;20078;-61
2022/07/16 07:34:11;;;;;;;13.95;5.40;;;19.30;98.40;;;;;;4971843;28;20054;-61
2022/07/16 07:36:37;;;;;;;12.80;5.20;;;19.50;97.40;;;;;;4970784;28;20047;-61
2022/07/16 07:39:03;;;;;;;10.65;5.55;;;19.80;97.40;;;;;;4971585;28;20031;-61
2022/07/16 07:41:29;;;;;;;14.45;6.85;;;19.80;96.30;;;;;;4971641;28;20031;-61
2022/07/16 07:43:54;;;;;;;7.95;5.28;;;19.80;96.40;;;;;;4972437;28;20481;-62
2022/07/16 07:46:20;;;;;;;9.18;5.55;;;19.90;97.40;;;;;;4971538;28;20035;-61
2022/07/16 07:48:46;;;;;;;10.55;4.90;;;20.00;96.00;;;;;;4972228;28;20065;-61
2022/07/16 07:51:12;;;;;;;7.43;4.93;;;20.20;95.80;;;;;;4971154;28;20030;-61
2022/07/16 07:53:37;;;;;;;7.60;5.05;;;20.30;93.70;;;;;;4971470;28;20044;-61
2022/07/16 07:56:04;;;;;;;9.98;5.68;;;20.30;95.60;;;;;;4971429;28;20035;-61
2022/07/16 07:58:30;;;;;;;13.02;4.78;;;20.50;95.20;;;;;;4957915;28;20113;-61
2022/07/16 08:00:56;;;;;;;9.55;4.97;;;20.60;94.50;;;;;;4953086;28;20478;-61
2022/07/16 08:03:22;;;;;;;8.13;4.65;;;20.70;95.20;;;;;;4968736;28;20034;-61
2022/07/16 08:05:48;;;;;;;8.35;4.38;;;20.70;94.40;;;;;;4965036;28;20031;-61
2022/07/16 08:08:14;;;;;;;11.70;4.38;;;20.70;94.20;;;;;;4951692;29;20027;-61
2022/07/16 08:10:39;;;;;;;9.55;3.30;;;21.00;92.00;;;;;;4958860;28;20106;-61
2022/07/16 08:13:05;;;;;;;5.18;3.22;;;21.20;88.00;;;;;;4969108;28;20433;-62
2022/07/16 08:15:31;;;;;;;12.25;3.25;;;21.30;81.10;;;;;;4973099;28;20032;-62
2022/07/16 08:17:57;;;;;;;5.75;3.08;;;21.60;84.80;;;;;;4970370;28;20023;-62
2022/07/16 08:20:23;;;;;;;5.85;2.97;;;21.80;82.30;;;;;;4971899;28;20027;-62
2022/07/16 08:22:49;;;;;;;7.90;3.38;;;21.90;81.70;;;;;;4971560;28;20034;-61
2022/07/16 08:27:58;;;;;;;4.53;3.38;;;22.00;83.50;;;;;;4971591;28;20077;-61
2022/07/16 08:30:24;;;;;;;5.90;3.08;;;22.10;82.30;;;;;;4960479;28;20047;-62
2022/07/16 08:32:50;;;;;;;6.90;3.25;;;21.80;79.80;;;;;;4962052;28;20106;-61
2022/07/16 08:35:16;;;;;;;4.60;2.70;;;21.90;80.40;;;;;;4972948;28;20114;-62
2022/07/16 08:37:44;;;;;;;6.05;2.40;;;22.20;77.90;;;;;;4971358;28;20049;-61
2022/07/16 08:40:17;;;;;;;5.10;2.67;;;22.40;78.50;;;;;;4962185;28;20046;-62
2022/07/16 08:42:43;;;;;;;8.75;3.05;;;22.40;74.80;;;;;;4950125;28;20053;-61
2022/07/16 08:45:10;;;;;;;4.78;2.50;;;22.60;75.30;;;;;;4971465;28;20602;-62
2022/07/16 08:47:36;;;;;;;5.50;2.25;;;22.70;73.60;;;;;;4969646;28;20031;-62
2022/07/16 08:50:08;;;;;;;5.22;2.00;;;22.70;75.00;;;;;;4972477;28;20500;-61
2022/07/16 08:52:41;;;;;;;4.25;2.17;;;22.80;72.10;;;;;;4971197;28;20121;-61
2022/07/16 08:55:08;;;;;;;9.43;2.03;;;23.00;65.90;;;;;;4971556;28;20031;-62
2022/07/16 08:57:37;;;;;;;3.72;1.67;;;23.10;69.90;;;;;;4969211;28;20627;-62
2022/07/16 09:00:06;;;;;;;4.07;2.10;;;23.20;62.80;;;;;;4964460;28;20031;-61
2022/07/16 09:02:32;;;;;;;4.88;2.10;;;23.30;65.00;;;;;;4970964;28;20042;-62
2022/07/16 09:04:59;;;;;;;3.80;1.85;;;23.20;60.80;;;;;;4971579;28;20057;-62
2022/07/16 09:07:25;;;;;;;4.88;1.95;;;23.20;63.50;;;;;;4969232;28;20098;-62
2022/07/16 09:09:50;;;;;;;3.72;1.80;;;23.40;64.20;;;;;;4969975;28;20054;-61
2022/07/16 09:12:49;;;;;;;4.53;2.00;;;23.50;61.10;;;;;;4968245;28;20082;-62
2022/07/16 09:15:46;;;;;;;3.85;2.00;;;23.50;65.40;;;;;;4957422;28;20039;-62
2022/07/16 09:18:17;;;;;;;3.92;2.28;;;23.50;65.70;;;;;;4954442;28;20385;-62
2022/07/16 09:20:53;;;;;;;5.95;2.10;;;23.60;60.40;;;;;;4960696;28;20045;-59
2022/07/16 09:23:37;;;;;;;4.65;2.25;;;23.40;59.40;;;;;;4960894;28;20035;-62
2022/07/16 09:26:07;;;;;;;7.32;2.25;;;23.60;65.80;;;;;;4970257;28;20031;-62
2022/07/16 09:28:50;;;;;;;5.03;2.15;;;23.80;66.00;;;;;;4970037;28;20572;-62
2022/07/16 09:31:40;;;;;;;3.80;2.17;;;24.20;61.90;;;;;;4970425;28;20492;-62
2022/07/16 09:34:15;;;;;;;5.07;2.65;;;24.40;62.80;;;;;;4970390;28;20433;-62
2022/07/16 09:37:02;;;;;;;5.20;2.35;;;24.50;57.10;;;;;;4970461;28;20167;-62
2022/07/16 09:39:29;;;;;;;9.85;2.38;;;24.50;58.30;;;;;;4969969;28;20031;-61
2022/07/16 09:41:55;;;;;;;7.32;2.35;;;24.40;57.50;;;;;;4971383;28;20078;-62
2022/07/16 09:44:22;;;;;;;4.28;2.50;;;23.90;56.70;;;;;;4970587;28;20086;-62
2022/07/16 09:47:00;;;;;;;3.38;2.22;;;23.80;57.90;;;;;;4972615;28;20067;-62
2022/07/16 09:49:27;;;;;;;3.97;2.40;;;23.80;56.70;;;;;;4969709;28;20030;-61
2022/07/16 09:51:53;;;;;;;3.75;2.00;;;24.00;59.80;;;;;;4963961;28;20027;-62
2022/07/16 09:54:32;;;;;;;4.70;2.38;;;24.10;58.70;;;;;;4960649;28;20027;-62
2022/07/16 09:57:18;;;;;;;6.07;2.55;;;24.50;57.10;;;;;;4960976;28;20039;-62
2022/07/16 09:59:45;;;;;;;40.60;4.03;;;24.80;58.70;;;;;;4970057;28;20118;-62
2022/07/16 10:02:11;;;;;;;3.67;2.33;;;25.00;59.80;;;;;;4962284;28;20035;-62
2022/07/16 10:04:37;;;;;;;7.55;2.83;;;25.00;54.20;;;;;;4964557;28;20051;-62
2022/07/16 10:07:03;;;;;;;6.63;2.60;;;25.20;55.90;;;;;;4960227;28;20035;-61
2022/07/16 10:09:30;;;;;;;7.63;2.47;;;25.50;56.30;;;;;;4966962;28;20089;-62
2022/07/16 10:12:01;;;;;;;7.63;2.55;;;25.00;56.50;;;;;;4965840;28;20053;-62
2022/07/16 10:14:31;;;;;;;5.78;2.20;;;24.90;57.00;;;;;;4970840;28;20037;-62
2022/07/16 10:16:59;;;;;;;3.33;2.10;;;25.20;55.90;;;;;;4971665;28;20070;-62
2022/07/16 10:19:34;;;;;;;9.88;2.58;;;25.50;55.60;;;;;;4967073;28;20035;-62
2022/07/16 10:22:15;;;;;;;5.03;2.30;;;25.80;56.90;;;;;;4973870;28;20117;-62
2022/07/16 10:24:55;;;;;;;4.43;2.42;;;26.10;57.70;;;;;;4970027;28;20118;-62
2022/07/16 10:27:34;;;;;;;3.60;2.17;;;26.40;58.20;;;;;;4953729;28;20039;-62
2022/07/16 10:30:10;;;;;;;4.03;2.40;;;26.50;58.00;;;;;;4954839;28;20086;-61
2022/07/16 10:33:02;;;;;;;3.28;2.30;;;26.60;54.50;;;;;;4952839;28;20145;-62
2022/07/16 10:35:45;;;;;;;10.35;2.72;;;26.50;54.00;;;;;;4952644;28;20290;-59
2022/07/16 10:38:29;;;;;;;4.05;2.17;;;26.30;52.00;;;;;;4968915;28;20119;-59
2022/07/16 10:41:09;;;;;;;2.97;2.00;;;26.00;54.00;;;;;;4954218;29;20071;-59
2022/07/16 10:43:36;;;;;;;5.20;2.20;;;25.70;52.40;;;;;;4963294;28;20040;-59
2022/07/16 10:46:04;;;;;;;6.72;1.90;;;26.00;53.70;;;;;;4973347;28;20034;-59
2022/07/16 10:48:37;;;;;;;4.50;1.85;;;26.40;54.10;;;;;;4972591;28;20114;-59
2022/07/16 10:51:17;;;;;;;5.20;2.20;;;26.40;51.70;;;;;;4964449;28;20035;-59
2022/07/16 10:54:01;;;;;;;6.88;2.60;;;26.60;48.90;;;;;;4968987;28;20053;-60
2022/07/16 10:56:32;;;;;;;4.18;2.10;;;26.60;52.60;;;;;;4974525;28;20041;-59
2022/07/16 10:58:58;;;;;;;7.40;1.90;;;25.90;51.70;;;;;;4953725;28;20023;-59
2022/07/16 11:01:24;;;;;;;6.55;1.95;;;25.60;51.80;;;;;;4966776;28;20039;-60
2022/07/16 11:03:51;;;;;;;4.07;1.90;;;25.90;53.90;;;;;;4971588;28;20099;-59
2022/07/16 11:06:20;;;;;;;29.35;2.38;;;26.10;50.50;;;;;;4970948;28;20035;-59
2022/07/16 11:08:51;;;;;;;4.35;1.90;;;26.40;52.50;;;;;;4965445;28;20064;-59
2022/07/16 11:11:17;;;;;;;5.18;2.17;;;26.60;52.60;;;;;;4954721;28;20055;-59
2022/07/16 11:13:43;;;;;;;4.65;1.90;;;26.70;50.60;;;;;;4959565;28;20031;-59
2022/07/16 11:16:09;;;;;;;3.65;1.65;;;26.90;52.50;;;;;;4962305;28;20743;-60
2022/07/16 11:18:38;;;;;;;3.53;2.08;;;27.00;51.90;;;;;;4968652;28;20066;-60
2022/07/16 11:21:05;;;;;;;3.25;2.20;;;27.40;50.30;;;;;;4955441;28;20063;-59
2022/07/16 11:23:46;;;;;;;3.80;1.88;;;27.00;48.00;;;;;;4963643;28;20035;-59
2022/07/16 11:26:12;;;;;;;4.88;1.90;;;26.50;51.00;;;;;;4961249;28;20374;-60
2022/07/16 11:28:58;;;;;;;3.90;1.85;;;26.60;48.30;;;;;;4959289;28;20030;-60
2022/07/16 11:31:34;;;;;;;5.25;1.83;;;26.80;50.90;;;;;;4951666;28;20106;-59
2022/07/16 11:34:06;;;;;;;5.38;2.00;;;27.00;49.80;;;;;;4952851;28;20462;-59
2022/07/16 11:36:37;;;;;;;3.28;1.77;;;27.30;51.80;;;;;;4952683;28;20027;-59
2022/07/16 11:39:14;;;;;;;16.80;2.78;;;27.50;49.70;;;;;;4960782;28;20046;-60
2022/07/16 11:41:43;;;;;;;12.68;2.33;;;27.30;48.30;;;;;;4954910;28;20938;-59
2022/07/16 11:44:12;;;;;;;7.25;2.40;;;26.50;49.70;;;;;;4968269;28;20030;-62
2022/07/16 11:46:49;;;;;;;11.35;1.90;;;26.60;51.10;;;;;;4962749;28;20030;-62
2022/07/16 11:49:30;;;;;;;8.60;1.92;;;26.60;49.00;;;;;;4970858;28;20253;-62
2022/07/16 11:52:02;;;;;;;4.43;1.88;;;26.90;50.40;;;;;;4973202;28;20042;-62
2022/07/16 11:54:30;;;;;;;2.90;1.80;;;27.20;49.90;;;;;;4962432;28;20024;-62
2022/07/16 11:56:56;;;;;;;3.33;1.85;;;27.60;51.30;;;;;;4957513;28;20038;-61
2022/07/16 11:59:31;;;;;;;3.28;2.13;;;27.50;49.50;;;;;;4971351;28;20169;-62
2022/07/16 12:02:04;;;;;;;2.75;1.83;;;27.70;49.70;;;;;;4968496;28;20465;-62
2022/07/16 12:04:42;;;;;;;5.05;1.85;;;27.80;47.20;;;;;;4968627;28;20042;-61
2022/07/16 12:07:12;;;;;;;1.88;1.30;;;27.50;46.80;;;;;;4952670;28;20036;-63
2022/07/16 12:09:39;;;;;;;4.57;2.17;;;27.40;46.00;;;;;;4951515;28;20513;-62
2022/07/16 12:12:09;;;;;;;2.88;1.58;;;27.50;49.20;;;;;;4971878;28;20141;-62
2022/07/16 12:14:57;;;;;;;2.47;1.30;;;27.60;49.10;;;;;;4969866;28;20066;-62
2022/07/16 12:17:33;;;;;;;6.55;1.70;;;27.70;46.10;;;;;;4959016;28;20376;-62
2022/07/16 12:20:23;;;;;;;5.65;1.80;;;28.00;48.70;;;;;;4959561;28;20031;-60
2022/07/16 12:23:07;;;;;;;1.80;1.17;;;27.80;45.50;;;;;;4966643;28;20480;-59
2022/07/16 12:25:34;;;;;;;3.50;2.00;;;27.80;49.40;;;;;;4970830;28;20425;-61
2022/07/16 12:28:10;;;;;;;3.25;1.77;;;28.00;50.60;;;;;;4964470;28;20113;-61
2022/07/16 12:30:45;;;;;;;7.20;1.77;;;28.10;48.00;;;;;;4967001;28;20031;-61
2022/07/16 12:33:21;;;;;;;2.63;1.67;;;28.20;45.40;;;;;;4965505;28;20031;-61
2022/07/16 12:36:03;;;;;;;1.98;1.60;;;28.00;47.80;;;;;;4950160;28;20028;-62
2022/07/16 12:38:55;;;;;;;2.72;1.80;;;28.00;46.90;;;;;;4957234;28;20027;-61
2022/07/16 12:41:27;;;;;;;1.88;1.10;;;28.00;46.90;;;;;;4951536;28;20508;-62
2022/07/16 12:44:00;;;;;;;5.60;1.80;;;27.90;46.10;;;;;;4951668;28;20034;-61
2022/07/16 12:46:29;;;;;;;6.35;1.50;;;27.70;47.40;;;;;;4956906;28;20034;-61
2022/07/16 12:48:58;;;;;;;3.60;1.50;;;27.50;47.30;;;;;;4969005;28;20054;-61
2022/07/16 12:51:27;;;;;;;3.13;1.55;;;27.30;46.90;;;;;;4951305;28;20041;-61
2022/07/16 12:53:54;;;;;;;3.78;1.70;;;27.50;49.10;;;;;;4952073;28;20094;-61
2022/07/16 12:59:05;;;;;;;2.40;1.52;;;27.80;47.30;;;;;;4956172;28;20827;-61